createdAt,value
2022-10-22T00:00:24.779Z,4.54
2022-10-22T00:02:51.335Z,4.60
2022-10-22T00:05:18.097Z,4.48
2022-10-22T00:07:44.698Z,4.58
2022-10-22T00:10:11.321Z,4.73
2022-10-22T00:12:39.113Z,4.75
2022-10-22T00:15:06.463Z,4.64
2022-10-22T00:17:32.991Z,4.66
2022-10-22T00:19:59.556Z,4.71
2022-10-22T00:22:26.156Z,4.87
2022-10-22T00:24:53.126Z,4.74
2022-10-22T00:27:19.715Z,4.66
2022-10-22T00:29:46.317Z,4.72
2022-10-22T00:32:13.003Z,4.69
2022-10-22T00:34:39.752Z,4.67
2022-10-22T00:37:06.329Z,4.57
2022-10-22T00:39:32.904Z,4.39
2022-10-22T00:41:59.575Z,4.55
2022-10-22T00:44:44.541Z,4.71
2022-10-22T00:47:11.145Z,4.79
2022-10-22T00:49:37.835Z,4.80
2022-10-22T00:52:04.554Z,4.81
2022-10-22T00:54:31.159Z,4.63
2022-10-22T00:56:57.820Z,4.59
2022-10-22T00:59:24.466Z,4.69
2022-10-22T01:01:52.865Z,4.49
2022-10-22T01:04:20.383Z,4.53
2022-10-22T01:06:47.853Z,4.45
2022-10-22T01:09:31.479Z,4.45
2022-10-22T01:11:57.895Z,4.45
2022-10-22T01:14:34.705Z,4.26
2022-10-22T01:17:09.066Z,4.74
2022-10-22T01:19:51.259Z,4.17
2022-10-22T01:22:47.346Z,4.48
2022-10-22T01:25:32.917Z,4.40
2022-10-22T01:28:18.273Z,4.68
2022-10-22T01:30:46.570Z,4.43
2022-10-22T01:33:16.574Z,4.28
2022-10-22T01:35:45.170Z,4.18
2022-10-22T01:38:15.824Z,4.13
2022-10-22T01:40:42.926Z,4.23
2022-10-22T01:43:11.459Z,3.97
2022-10-22T01:45:47.677Z,4.19
2022-10-22T01:48:14.136Z,4.09
2022-10-22T01:50:59.290Z,4.03
2022-10-22T01:53:26.114Z,3.98
2022-10-22T01:56:15.738Z,4.11
2022-10-22T01:58:42.271Z,4.12
2022-10-22T02:01:24.064Z,4.14
2022-10-22T02:04:02.863Z,3.93
2022-10-22T02:06:32.962Z,3.89
2022-10-22T02:09:02.169Z,3.98
2022-10-22T02:11:28.897Z,3.90
2022-10-22T02:13:59.475Z,4.16
2022-10-22T02:16:30.061Z,3.87
2022-10-22T02:18:59.250Z,3.81
2022-10-22T02:21:27.177Z,3.65
2022-10-22T02:23:54.009Z,3.46
2022-10-22T02:26:38.011Z,3.36
2022-10-22T02:29:12.988Z,3.57
2022-10-22T02:31:43.362Z,3.73
2022-10-22T02:34:14.677Z,3.62
2022-10-22T02:36:46.764Z,4.09
2022-10-22T02:41:48.770Z,3.68
2022-10-22T02:44:15.621Z,3.95
2022-10-22T02:46:43.418Z,4.01
2022-10-22T02:49:09.995Z,3.98
2022-10-22T02:51:36.529Z,3.98
2022-10-22T02:54:03.080Z,3.78
2022-10-22T02:56:29.613Z,3.97
2022-10-22T02:58:56.134Z,3.64
2022-10-22T03:01:23.439Z,3.73
2022-10-22T03:03:50.281Z,3.89
2022-10-22T03:06:17.245Z,3.89
2022-10-22T03:08:44.160Z,3.94
2022-10-22T03:11:10.809Z,3.86
2022-10-22T03:13:37.308Z,4.05
2022-10-22T03:16:04.185Z,3.94
2022-10-22T03:18:30.883Z,3.57
2022-10-22T03:21:10.680Z,3.85
2022-10-22T03:23:39.640Z,4.01
2022-10-22T03:26:07.485Z,3.91
2022-10-22T03:28:35.488Z,3.97
2022-10-22T03:31:02.092Z,3.71
2022-10-22T03:33:28.646Z,4.11
2022-10-22T03:35:55.300Z,4.07
2022-10-22T03:38:22.022Z,3.73
2022-10-22T03:40:48.969Z,4.00
2022-10-22T03:43:16.551Z,4.48
2022-10-22T03:45:43.159Z,4.31
2022-10-22T03:48:09.784Z,4.11
2022-10-22T03:50:36.561Z,4.25
2022-10-22T03:53:03.764Z,3.98
2022-10-22T03:55:30.318Z,4.01
2022-10-22T03:57:56.839Z,4.14
2022-10-22T04:00:23.431Z,3.73
2022-10-22T04:02:50.000Z,3.95
2022-10-22T04:05:16.729Z,4.08
2022-10-22T04:07:43.439Z,4.14
2022-10-22T04:10:10.162Z,4.10
2022-10-22T04:12:36.754Z,3.75
2022-10-22T04:15:04.264Z,4.05
2022-10-22T04:17:38.109Z,3.93
2022-10-22T04:20:05.786Z,3.97
2022-10-22T04:22:36.261Z,4.52
2022-10-22T04:25:03.796Z,4.06
2022-10-22T04:27:31.837Z,4.15
2022-10-22T04:29:58.576Z,3.99
2022-10-22T04:32:25.943Z,3.94
2022-10-22T04:34:52.424Z,4.22
2022-10-22T04:37:19.544Z,4.18
2022-10-22T04:39:46.108Z,4.11
2022-10-22T04:42:12.856Z,4.17
2022-10-22T04:44:39.441Z,4.49
2022-10-22T04:47:05.956Z,4.64
2022-10-22T04:49:32.523Z,4.01
2022-10-22T04:51:59.046Z,4.04
2022-10-22T04:54:28.976Z,4.00
2022-10-22T04:56:58.817Z,4.11
2022-10-22T04:59:25.421Z,4.21
2022-10-22T05:01:51.923Z,4.06
2022-10-22T05:04:19.750Z,4.16
2022-10-22T05:06:46.634Z,3.99
2022-10-22T05:09:15.455Z,4.28
2022-10-22T05:11:45.571Z,4.34
2022-10-22T05:14:12.720Z,4.05
2022-10-22T05:16:39.722Z,3.98
2022-10-22T05:19:06.885Z,3.94
2022-10-22T05:21:33.937Z,4.05
2022-10-22T05:24:00.520Z,4.14
2022-10-22T05:26:28.900Z,3.72
2022-10-22T05:28:55.583Z,4.05
2022-10-22T05:31:22.267Z,3.93
2022-10-22T05:33:49.003Z,4.01
2022-10-22T05:36:17.476Z,3.69
2022-10-22T05:38:44.497Z,4.33
2022-10-22T05:41:12.630Z,3.74
2022-10-22T05:43:39.832Z,4.23
2022-10-22T05:46:11.527Z,4.15
2022-10-22T05:48:38.947Z,4.22
2022-10-22T05:51:07.187Z,4.29
2022-10-22T05:53:34.883Z,4.34
2022-10-22T05:56:02.872Z,4.22
2022-10-22T05:58:29.692Z,3.97
2022-10-22T06:01:01.157Z,3.97
2022-10-22T06:03:28.888Z,3.95
2022-10-22T06:05:55.526Z,3.91
2022-10-22T06:08:22.328Z,4.30
2022-10-22T06:10:48.910Z,4.32
2022-10-22T06:13:15.448Z,4.27
2022-10-22T06:15:41.955Z,4.12
2022-10-22T06:18:08.499Z,4.40
2022-10-22T06:20:35.271Z,4.07
2022-10-22T06:23:01.846Z,4.01
2022-10-22T06:25:28.680Z,3.79
2022-10-22T06:27:55.190Z,4.26
2022-10-22T06:30:21.711Z,3.86
2022-10-22T06:32:48.290Z,3.67
2022-10-22T06:35:14.901Z,3.88
2022-10-22T06:37:41.844Z,3.43
2022-10-22T06:40:08.676Z,3.95
2022-10-22T06:42:35.190Z,4.07
2022-10-22T06:47:33.470Z,4.05
2022-10-22T06:50:00.043Z,4.17
2022-10-22T06:52:26.631Z,3.98
2022-10-22T06:54:53.185Z,4.18
2022-10-22T06:57:19.711Z,4.07
2022-10-22T06:59:46.294Z,4.52
2022-10-22T07:02:12.786Z,4.53
2022-10-22T07:04:39.315Z,4.16
2022-10-22T07:07:05.789Z,4.17
2022-10-22T07:09:32.313Z,4.11
2022-10-22T07:11:58.871Z,4.08
2022-10-22T07:14:25.410Z,4.06
2022-10-22T07:16:51.918Z,4.34
2022-10-22T07:19:18.446Z,3.99
2022-10-22T07:21:45.014Z,4.02
2022-10-22T07:24:11.610Z,3.82
2022-10-22T07:26:38.131Z,3.83
2022-10-22T07:29:05.033Z,4.32
2022-10-22T07:31:31.707Z,4.28
2022-10-22T07:33:58.365Z,4.32
2022-10-22T07:36:25.046Z,4.04
2022-10-22T07:38:57.071Z,4.14
2022-10-22T07:41:23.920Z,4.08
2022-10-22T07:43:50.526Z,4.19
2022-10-22T07:46:17.058Z,4.31
2022-10-22T07:48:43.710Z,4.19
2022-10-22T07:51:10.350Z,4.29
2022-10-22T07:53:37.478Z,3.87
2022-10-22T07:56:04.125Z,4.32
2022-10-22T07:58:30.815Z,4.04
2022-10-22T08:00:58.810Z,4.11
2022-10-22T08:03:25.371Z,3.98
2022-10-22T08:05:52.754Z,4.23
2022-10-22T08:08:20.081Z,4.34
2022-10-22T08:10:47.830Z,3.86
2022-10-22T08:13:15.033Z,3.79
2022-10-22T08:15:42.642Z,4.09
2022-10-22T08:18:09.204Z,4.17
2022-10-22T08:20:36.065Z,4.23
2022-10-22T08:23:02.617Z,3.93
2022-10-22T08:25:29.225Z,4.40
2022-10-22T08:27:55.777Z,4.64
2022-10-22T08:30:22.572Z,3.97
2022-10-22T08:32:51.631Z,3.85
2022-10-22T08:35:20.656Z,3.92
2022-10-22T08:37:47.242Z,4.15
2022-10-22T08:40:23.175Z,4.89
2022-10-22T08:43:07.931Z,4.02
2022-10-22T08:45:44.322Z,3.96
2022-10-22T08:48:14.595Z,4.30
2022-10-22T08:50:45.796Z,3.97
2022-10-22T08:53:23.571Z,4.04
2022-10-22T08:55:53.192Z,4.26
2022-10-22T08:58:33.203Z,4.07
2022-10-22T09:01:02.529Z,4.00
2022-10-22T09:03:47.192Z,3.71
2022-10-22T09:06:16.355Z,3.89
2022-10-22T09:08:45.853Z,3.59
2022-10-22T09:11:12.440Z,3.83
2022-10-22T09:13:40.770Z,3.79
2022-10-22T09:16:18.902Z,3.77
2022-10-22T09:18:48.242Z,3.53
2022-10-22T09:21:24.065Z,3.79
2022-10-22T09:24:09.712Z,4.27
2022-10-22T09:26:38.805Z,3.97
2022-10-22T09:29:05.951Z,3.78
2022-10-22T09:31:33.436Z,3.92
2022-10-22T09:34:05.890Z,3.96
2022-10-22T09:36:33.052Z,3.80
2022-10-22T09:39:00.615Z,4.03
2022-10-22T09:41:32.256Z,3.81
2022-10-22T09:43:59.727Z,3.85
2022-10-22T09:46:29.938Z,4.49
2022-10-22T09:48:59.244Z,3.86
2022-10-22T09:51:37.452Z,4.79
2022-10-22T09:54:14.505Z,4.60
2022-10-22T09:56:42.192Z,7.77
2022-10-22T09:59:16.188Z,5.39
2022-10-22T10:01:43.024Z,4.61
2022-10-22T10:04:12.167Z,4.26
2022-10-22T10:06:40.502Z,6.27
2022-10-22T10:09:27.148Z,3.80
2022-10-22T10:11:56.506Z,4.62
2022-10-22T10:14:43.869Z,3.91
2022-10-22T10:17:28.601Z,4.37
2022-10-22T10:20:16.399Z,5.07
2022-10-22T10:22:43.272Z,4.92
2022-10-22T10:25:10.245Z,4.48
2022-10-22T10:27:36.653Z,4.15
2022-10-22T10:30:03.107Z,4.48
2022-10-22T10:32:46.352Z,4.09
2022-10-22T10:35:25.951Z,4.30
2022-10-22T10:38:11.318Z,4.33
2022-10-22T10:40:46.351Z,4.55
2022-10-22T10:43:12.919Z,5.03
2022-10-22T10:46:01.595Z,4.79
2022-10-22T10:48:49.070Z,4.32
2022-10-22T10:51:36.230Z,4.45
2022-10-22T10:54:02.839Z,4.52
2022-10-22T10:56:39.297Z,5.17
2022-10-22T10:59:15.369Z,5.40
2022-10-22T11:02:00.908Z,4.36
2022-10-22T11:04:30.473Z,4.12
2022-10-22T11:07:11.054Z,4.60
2022-10-22T11:09:52.194Z,4.58
2022-10-22T11:12:23.626Z,3.71
2022-10-22T11:14:53.241Z,4.13
2022-10-22T11:17:23.610Z,5.03
2022-10-22T11:19:59.973Z,6.00
2022-10-22T11:22:33.314Z,5.72
2022-10-22T11:25:05.793Z,5.76
2022-10-22T11:28:11.125Z,5.53
2022-10-22T11:30:40.850Z,5.84
2022-10-22T11:33:11.834Z,5.94
2022-10-22T11:35:44.462Z,6.97
2022-10-22T11:38:38.176Z,6.58
2022-10-22T11:41:17.068Z,7.27
2022-10-22T11:43:52.536Z,6.95
2022-10-22T11:46:19.042Z,7.63
2022-10-22T11:49:01.347Z,7.06
2022-10-22T11:51:34.077Z,8.76
2022-10-22T11:54:02.408Z,9.37
2022-10-22T11:56:38.684Z,7.99
2022-10-22T11:59:25.205Z,8.20
2022-10-22T12:01:55.138Z,8.39
2022-10-22T12:04:23.623Z,8.83
2022-10-22T12:07:01.456Z,7.81
2022-10-22T12:09:32.094Z,8.07
2022-10-22T12:12:13.438Z,7.79
2022-10-22T12:14:54.582Z,7.49
2022-10-22T12:17:21.943Z,7.95
2022-10-22T12:19:58.505Z,8.59
2022-10-22T12:22:30.433Z,8.96
2022-10-22T12:25:02.093Z,9.22
2022-10-22T12:27:34.871Z,8.15
2022-10-22T12:30:03.209Z,8.49
2022-10-22T12:32:41.480Z,9.09
2022-10-22T12:35:11.785Z,7.60
2022-10-22T12:37:38.739Z,8.42
2022-10-22T12:40:23.215Z,9.30
2022-10-22T12:42:51.485Z,9.35
2022-10-22T12:45:19.232Z,8.43
2022-10-22T12:47:47.079Z,8.25
2022-10-22T12:50:23.546Z,8.38
2022-10-22T12:52:50.320Z,8.55
2022-10-22T12:55:17.745Z,7.85
2022-10-22T12:57:46.377Z,8.73
2022-10-22T13:00:32.767Z,7.32
2022-10-22T13:03:03.158Z,8.59
2022-10-22T13:05:38.907Z,8.68
2022-10-22T13:08:21.300Z,8.10
2022-10-22T13:10:52.464Z,8.12
2022-10-22T13:13:33.140Z,7.52
2022-10-22T13:16:20.655Z,6.93
2022-10-22T13:18:48.836Z,6.76
2022-10-22T13:21:34.395Z,8.33
2022-10-22T13:24:20.085Z,7.78
2022-10-22T13:26:49.898Z,7.94
2022-10-22T13:29:21.569Z,6.92
2022-10-22T13:31:50.247Z,7.24
2022-10-22T13:34:22.217Z,6.99
2022-10-22T13:36:49.546Z,6.81
2022-10-22T13:39:18.180Z,7.10
2022-10-22T13:41:44.787Z,7.28
2022-10-22T13:44:11.322Z,7.04
2022-10-22T13:46:42.935Z,6.76
2022-10-22T13:49:15.974Z,6.68
2022-10-22T13:51:42.661Z,6.23
2022-10-22T13:54:18.676Z,7.07
2022-10-22T13:56:45.290Z,5.98
2022-10-22T13:59:12.031Z,6.89
2022-10-22T14:01:40.813Z,5.64
2022-10-22T14:04:14.314Z,5.56
2022-10-22T14:06:40.985Z,5.73
2022-10-22T14:09:11.987Z,5.81
2022-10-22T14:11:38.683Z,6.85
2022-10-22T14:14:08.840Z,6.29
2022-10-22T14:16:37.640Z,6.78
2022-10-22T14:19:07.445Z,6.51
2022-10-22T14:21:36.859Z,6.38
2022-10-22T14:24:04.490Z,6.57
2022-10-22T14:26:35.074Z,6.38
2022-10-22T14:29:10.651Z,6.25
2022-10-22T14:31:44.067Z,5.94
2022-10-22T14:34:12.982Z,6.89
2022-10-22T14:36:39.633Z,7.10
2022-10-22T14:39:06.142Z,6.77
2022-10-22T14:41:32.916Z,6.51
2022-10-22T14:43:59.963Z,6.70
2022-10-22T14:46:26.698Z,6.70
2022-10-22T14:48:53.235Z,6.92
2022-10-22T14:51:21.019Z,6.95
2022-10-22T14:53:48.224Z,6.18
2022-10-22T14:56:16.347Z,6.63
2022-10-22T14:58:43.048Z,7.32
2022-10-22T15:01:09.736Z,6.71
2022-10-22T15:03:36.614Z,6.88
2022-10-22T15:06:03.715Z,7.31
2022-10-22T15:08:30.315Z,7.50
2022-10-22T15:11:03.378Z,7.33
2022-10-22T15:13:30.430Z,7.37
2022-10-22T15:15:57.576Z,7.25
2022-10-22T15:18:24.874Z,7.90
2022-10-22T15:20:55.062Z,7.96
2022-10-22T15:23:21.696Z,7.81
2022-10-22T15:25:48.219Z,7.93
2022-10-22T15:28:14.864Z,7.65
2022-10-22T15:30:41.348Z,7.73
2022-10-22T15:33:07.851Z,7.86
2022-10-22T15:35:34.589Z,8.34
2022-10-22T15:38:01.136Z,8.09
2022-10-22T15:40:27.717Z,8.00
2022-10-22T15:42:54.496Z,7.76
2022-10-22T15:45:25.120Z,8.01
2022-10-22T15:47:51.711Z,8.41
2022-10-22T15:50:18.332Z,8.76
2022-10-22T15:52:44.834Z,8.62
2022-10-22T15:55:14.466Z,8.08
2022-10-22T15:57:41.581Z,7.70
2022-10-22T16:00:08.614Z,7.70
2022-10-22T16:02:35.284Z,7.72
2022-10-22T16:05:01.926Z,8.67
2022-10-22T16:07:29.827Z,7.83
2022-10-22T16:09:57.451Z,8.39
2022-10-22T16:12:24.094Z,7.90
2022-10-22T16:14:50.995Z,8.05
2022-10-22T16:17:17.636Z,7.98
2022-10-22T16:19:44.276Z,8.74
2022-10-22T16:22:13.771Z,8.38
2022-10-22T16:24:43.091Z,8.83
2022-10-22T16:27:10.246Z,7.71
2022-10-22T16:29:38.933Z,8.33
2022-10-22T16:32:05.634Z,7.60
2022-10-22T16:34:32.177Z,7.17
2022-10-22T16:36:58.737Z,8.33
2022-10-22T16:39:25.566Z,8.13
2022-10-22T16:41:52.169Z,8.12
2022-10-22T16:44:18.739Z,7.49
2022-10-22T16:46:45.385Z,7.63
2022-10-22T16:49:12.113Z,7.51
2022-10-22T16:51:39.287Z,8.38
2022-10-22T16:54:08.393Z,7.32
2022-10-22T16:56:38.068Z,7.26
2022-10-22T16:59:04.617Z,7.36
2022-10-22T17:01:31.586Z,17.30
2022-10-22T17:04:01.376Z,14.06
2022-10-22T17:06:28.447Z,7.90
2022-10-22T17:08:55.213Z,6.54
2022-10-22T17:11:23.725Z,5.58
2022-10-22T17:13:52.682Z,6.28
2022-10-22T17:16:21.518Z,6.30
2022-10-22T17:18:48.788Z,5.58
2022-10-22T17:21:16.332Z,5.95
2022-10-22T17:23:43.076Z,5.75
2022-10-22T17:26:14.437Z,5.68
2022-10-22T17:28:41.358Z,6.05
2022-10-22T17:31:07.833Z,5.83
2022-10-22T17:33:35.756Z,6.09
2022-10-22T17:36:02.630Z,5.71
2022-10-22T17:38:29.238Z,6.51
2022-10-22T17:40:57.105Z,5.93
2022-10-22T17:43:23.743Z,6.96
2022-10-22T17:45:50.570Z,6.65
2022-10-22T17:48:17.111Z,6.37
2022-10-22T17:50:46.989Z,6.48
2022-10-22T17:53:16.368Z,7.36
2022-10-22T17:55:42.882Z,6.76
2022-10-22T17:58:09.394Z,6.78
2022-10-22T18:00:36.335Z,6.40
2022-10-22T18:03:03.007Z,6.68
2022-10-22T18:05:29.616Z,6.32
2022-10-22T18:07:57.342Z,7.24
2022-10-22T18:10:23.916Z,7.97
2022-10-22T18:12:50.966Z,8.04
2022-10-22T18:15:17.761Z,8.60
2022-10-22T18:17:47.001Z,8.06
2022-10-22T18:20:13.694Z,7.08
2022-10-22T18:22:42.328Z,7.20
2022-10-22T18:25:09.295Z,6.83
2022-10-22T18:27:35.918Z,6.77
2022-10-22T18:30:02.567Z,6.35
2022-10-22T18:32:29.074Z,6.82
2022-10-22T18:34:55.712Z,6.55
2022-10-22T18:37:22.239Z,6.54
2022-10-22T18:39:49.435Z,6.42
2022-10-22T18:44:47.527Z,6.28
2022-10-22T18:47:14.063Z,6.51
2022-10-22T18:49:40.750Z,7.21
2022-10-22T18:52:07.526Z,7.87
2022-10-22T18:54:34.893Z,7.75
2022-10-22T18:57:03.225Z,7.39
2022-10-22T18:59:30.327Z,8.46
2022-10-22T19:02:00.364Z,10.07
2022-10-22T19:04:37.078Z,12.80
2022-10-22T19:07:05.240Z,13.76
2022-10-22T19:09:31.994Z,16.28
2022-10-22T19:11:59.549Z,22.15
2022-10-22T19:14:26.270Z,24.04
2022-10-22T19:16:53.463Z,25.69
2022-10-22T19:19:21.290Z,26.08
2022-10-22T19:21:48.694Z,25.88
2022-10-22T19:24:16.314Z,25.01
2022-10-22T19:26:43.086Z,22.88
2022-10-22T19:29:11.022Z,21.17
2022-10-22T19:31:38.158Z,19.20
2022-10-22T19:34:05.268Z,17.46
2022-10-22T19:36:32.860Z,16.50
2022-10-22T19:38:59.634Z,15.06
2022-10-22T19:41:27.299Z,13.97
2022-10-22T19:43:55.437Z,13.57
2022-10-22T19:46:22.994Z,13.12
2022-10-22T19:48:51.292Z,12.65
2022-10-22T19:51:19.564Z,12.51
2022-10-22T19:53:47.047Z,12.09
2022-10-22T19:56:17.864Z,11.59
2022-10-22T19:58:44.604Z,11.10
2022-10-22T20:01:12.666Z,10.60
2022-10-22T20:03:40.361Z,10.93
2022-10-22T20:06:08.804Z,10.80
2022-10-22T20:08:37.877Z,10.45
2022-10-22T20:11:09.150Z,10.49
2022-10-22T20:13:35.850Z,10.47
2022-10-22T20:16:02.533Z,9.77
2022-10-22T20:18:29.181Z,9.75
2022-10-22T20:20:56.098Z,9.51
2022-10-22T20:23:22.649Z,9.73
2022-10-22T20:25:49.334Z,9.90
2022-10-22T20:28:15.934Z,9.76
2022-10-22T20:30:43.392Z,9.20
2022-10-22T20:33:10.398Z,9.50
2022-10-22T20:35:37.505Z,9.55
2022-10-22T20:38:05.472Z,9.46
2022-10-22T20:40:32.510Z,10.27
2022-10-22T20:42:59.653Z,9.72
2022-10-22T20:45:27.313Z,9.84
2022-10-22T20:48:01.942Z,10.20
2022-10-22T20:50:32.216Z,10.54
2022-10-22T20:52:59.443Z,10.54
2022-10-22T20:55:26.950Z,10.11
2022-10-22T20:57:53.838Z,9.91
2022-10-22T21:00:20.556Z,10.27
2022-10-22T21:02:47.083Z,9.82
2022-10-22T21:05:13.641Z,9.30
2022-10-22T21:07:40.472Z,9.37
2022-10-22T21:10:07.444Z,8.96
2022-10-22T21:12:34.113Z,8.73
2022-10-22T21:15:00.851Z,8.88
2022-10-22T21:17:27.431Z,9.03
2022-10-22T21:19:54.166Z,9.79
2022-10-22T21:22:20.874Z,10.09
2022-10-22T21:24:47.495Z,9.62
2022-10-22T21:27:14.137Z,9.94
2022-10-22T21:29:40.695Z,9.55
2022-10-22T21:32:07.206Z,9.33
2022-10-22T21:34:38.157Z,9.47
2022-10-22T21:37:06.023Z,9.67
2022-10-22T21:39:32.571Z,9.75
2022-10-22T21:41:59.133Z,9.77
2022-10-22T21:44:25.712Z,10.36
2022-10-22T21:46:52.575Z,9.95
2022-10-22T21:49:19.101Z,9.92
2022-10-22T21:51:45.690Z,9.85
2022-10-22T21:54:12.741Z,9.86
2022-10-22T21:56:39.838Z,9.81
2022-10-22T21:59:07.019Z,10.15
2022-10-22T22:01:34.123Z,10.21
2022-10-22T22:04:00.789Z,9.45
2022-10-22T22:06:32.046Z,9.66
2022-10-22T22:08:59.962Z,9.56
2022-10-22T22:11:27.750Z,9.68
2022-10-22T22:13:55.593Z,10.08
2022-10-22T22:16:27.218Z,9.56
2022-10-22T22:18:56.021Z,9.36
2022-10-22T22:21:22.798Z,9.67
2022-10-22T22:23:50.558Z,9.60
2022-10-22T22:26:19.164Z,9.91
2022-10-22T22:28:46.011Z,9.53
2022-10-22T22:31:23.104Z,9.96
2022-10-22T22:33:50.111Z,9.83
2022-10-22T22:36:16.654Z,10.24
2022-10-22T22:38:43.176Z,10.44
2022-10-22T22:41:09.740Z,10.44
2022-10-22T22:43:37.688Z,10.20
2022-10-22T22:46:05.851Z,9.94
2022-10-22T22:48:33.369Z,11.03
2022-10-22T22:51:01.583Z,10.60
2022-10-22T22:53:28.867Z,10.18
2022-10-22T22:56:15.697Z,10.54
2022-10-22T22:58:42.382Z,10.83
2022-10-22T23:01:29.123Z,11.21
2022-10-22T23:03:58.197Z,10.92
2022-10-22T23:06:26.467Z,10.66
2022-10-22T23:08:54.613Z,10.45
2022-10-22T23:11:22.619Z,10.84
2022-10-22T23:13:52.148Z,10.32
2022-10-22T23:16:20.786Z,12.16
2022-10-22T23:18:48.242Z,13.87
2022-10-22T23:21:16.261Z,12.34
2022-10-22T23:23:44.029Z,11.87
2022-10-22T23:26:12.723Z,11.77
2022-10-22T23:28:39.623Z,12.00
2022-10-22T23:31:07.783Z,11.92
2022-10-22T23:33:34.743Z,11.88
2022-10-22T23:36:02.081Z,11.66
2022-10-22T23:38:28.811Z,11.74
2022-10-22T23:40:56.989Z,11.80
2022-10-22T23:43:24.377Z,11.99
2022-10-22T23:45:51.184Z,11.98
2022-10-22T23:48:18.257Z,13.41
2022-10-22T23:50:45.010Z,12.91
2022-10-22T23:53:11.713Z,14.41
2022-10-22T23:55:42.259Z,13.62
2022-10-22T23:58:09.539Z,12.87
